sensor_id;sensor_type;location;lat;lon;timestamp;P1;durP1;ratioP1;P2;durP2;ratioP2
62030;SDS011;62035;52.094;5.112;2023-02-15T00:02:04;35.50;;;20.25;;
62030;SDS011;62035;52.094;5.112;2023-02-15T00:04:31;36.28;;;19.02;;
62030;SDS011;62035;52.094;5.112;2023-02-15T00:07:15;34.72;;;19.23;;
62030;SDS011;62035;52.094;5.112;2023-02-15T00:09:47;41.67;;;20.35;;
62030;SDS011;62035;52.094;5.112;2023-02-15T00:12:16;41.10;;;21.15;;
62030;SDS011;62035;52.094;5.112;2023-02-15T00:14:43;45.90;;;21.25;;
62030;SDS011;62035;52.094;5.112;2023-02-15T00:17:11;39.13;;;20.40;;
62030;SDS011;62035;52.094;5.112;2023-02-15T00:19:39;50.58;;;21.05;;
62030;SDS011;62035;52.094;5.112;2023-02-15T00:22:06;40.97;;;21.17;;
62030;SDS011;62035;52.094;5.112;2023-02-15T00:24:34;38.08;;;19.25;;
62030;SDS011;62035;52.094;5.112;2023-02-15T00:27:03;39.08;;;19.35;;
62030;SDS011;62035;52.094;5.112;2023-02-15T00:29:31;42.38;;;21.48;;
62030;SDS011;62035;52.094;5.112;2023-02-15T00:31:59;44.53;;;21.73;;
62030;SDS011;62035;52.094;5.112;2023-02-15T00:34:27;43.40;;;21.58;;
62030;SDS011;62035;52.094;5.112;2023-02-15T00:36:55;37.83;;;19.92;;
62030;SDS011;62035;52.094;5.112;2023-02-15T00:39:23;38.22;;;20.05;;
62030;SDS011;62035;52.094;5.112;2023-02-15T00:41:51;40.08;;;20.48;;
62030;SDS011;62035;52.094;5.112;2023-02-15T00:44:20;47.70;;;23.00;;
62030;SDS011;62035;52.094;5.112;2023-02-15T00:46:47;42.55;;;21.25;;
62030;SDS011;62035;52.094;5.112;2023-02-15T00:49:15;39.05;;;19.83;;
62030;SDS011;62035;52.094;5.112;2023-02-15T00:51:42;40.20;;;19.65;;
62030;SDS011;62035;52.094;5.112;2023-02-15T00:54:10;38.25;;;19.67;;
62030;SDS011;62035;52.094;5.112;2023-02-15T00:56:38;46.55;;;21.95;;
62030;SDS011;62035;52.094;5.112;2023-02-15T00:59:05;44.92;;;21.60;;
62030;SDS011;62035;52.094;5.112;2023-02-15T01:01:34;39.45;;;21.35;;
62030;SDS011;62035;52.094;5.112;2023-02-15T01:04:02;39.65;;;20.02;;
62030;SDS011;62035;52.094;5.112;2023-02-15T01:06:30;43.42;;;20.30;;
62030;SDS011;62035;52.094;5.112;2023-02-15T01:08:57;40.33;;;20.52;;
62030;SDS011;62035;52.094;5.112;2023-02-15T01:11:25;35.78;;;20.20;;
62030;SDS011;62035;52.094;5.112;2023-02-15T01:13:53;35.67;;;20.02;;
62030;SDS011;62035;52.094;5.112;2023-02-15T01:16:24;37.25;;;18.77;;
62030;SDS011;62035;52.094;5.112;2023-02-15T01:18:55;34.97;;;19.48;;
62030;SDS011;62035;52.094;5.112;2023-02-15T01:21:24;38.75;;;20.13;;
62030;SDS011;62035;52.094;5.112;2023-02-15T01:23:53;35.63;;;18.67;;
62030;SDS011;62035;52.094;5.112;2023-02-15T01:26:20;39.17;;;20.27;;
62030;SDS011;62035;52.094;5.112;2023-02-15T01:28:48;41.75;;;20.10;;
62030;SDS011;62035;52.094;5.112;2023-02-15T01:31:17;43.35;;;21.13;;
62030;SDS011;62035;52.094;5.112;2023-02-15T01:33:47;43.20;;;21.17;;
62030;SDS011;62035;52.094;5.112;2023-02-15T01:36:16;43.78;;;21.27;;
62030;SDS011;62035;52.094;5.112;2023-02-15T01:38:44;43.97;;;20.67;;
62030;SDS011;62035;52.094;5.112;2023-02-15T01:41:13;38.53;;;19.60;;
62030;SDS011;62035;52.094;5.112;2023-02-15T01:43:54;42.00;;;20.20;;
62030;SDS011;62035;52.094;5.112;2023-02-15T01:46:26;46.80;;;22.10;;
62030;SDS011;62035;52.094;5.112;2023-02-15T01:49:01;44.58;;;19.67;;
62030;SDS011;62035;52.094;5.112;2023-02-15T01:51:36;40.22;;;21.52;;
62030;SDS011;62035;52.094;5.112;2023-02-15T01:54:09;40.38;;;19.58;;
62030;SDS011;62035;52.094;5.112;2023-02-15T01:56:44;40.78;;;19.65;;
62030;SDS011;62035;52.094;5.112;2023-02-15T01:59:16;39.92;;;20.75;;
62030;SDS011;62035;52.094;5.112;2023-02-15T02:01:51;43.75;;;21.58;;
62030;SDS011;62035;52.094;5.112;2023-02-15T02:04:24;39.95;;;19.67;;
62030;SDS011;62035;52.094;5.112;2023-02-15T02:07:02;41.88;;;20.00;;
62030;SDS011;62035;52.094;5.112;2023-02-15T02:09:32;41.90;;;22.13;;
62030;SDS011;62035;52.094;5.112;2023-02-15T02:11:59;38.60;;;20.23;;
62030;SDS011;62035;52.094;5.112;2023-02-15T02:14:28;41.25;;;20.60;;
62030;SDS011;62035;52.094;5.112;2023-02-15T02:16:57;43.60;;;21.08;;
62030;SDS011;62035;52.094;5.112;2023-02-15T02:23:09;44.42;;;20.52;;
62030;SDS011;62035;52.094;5.112;2023-02-15T02:26:05;40.83;;;19.35;;
62030;SDS011;62035;52.094;5.112;2023-02-15T02:29:21;39.40;;;20.48;;
62030;SDS011;62035;52.094;5.112;2023-02-15T02:32:26;43.78;;;21.33;;
62030;SDS011;62035;52.094;5.112;2023-02-15T02:35:33;44.60;;;21.23;;
62030;SDS011;62035;52.094;5.112;2023-02-15T02:38:11;45.10;;;21.42;;
62030;SDS011;62035;52.094;5.112;2023-02-15T02:40:55;41.38;;;21.30;;
62030;SDS011;62035;52.094;5.112;2023-02-15T02:43:35;40.67;;;19.85;;
62030;SDS011;62035;52.094;5.112;2023-02-15T02:46:13;39.95;;;20.05;;
62030;SDS011;62035;52.094;5.112;2023-02-15T02:48:48;42.05;;;20.70;;
62030;SDS011;62035;52.094;5.112;2023-02-15T02:51:17;42.70;;;21.13;;
62030;SDS011;62035;52.094;5.112;2023-02-15T02:53:49;44.15;;;21.75;;
62030;SDS011;62035;52.094;5.112;2023-02-15T02:56:23;43.53;;;20.73;;
62030;SDS011;62035;52.094;5.112;2023-02-15T02:58:58;41.92;;;20.77;;
62030;SDS011;62035;52.094;5.112;2023-02-15T03:01:33;41.67;;;20.55;;
62030;SDS011;62035;52.094;5.112;2023-02-15T03:04:10;47.03;;;20.50;;
62030;SDS011;62035;52.094;5.112;2023-02-15T03:06:44;43.55;;;20.90;;
62030;SDS011;62035;52.094;5.112;2023-02-15T03:09:22;45.10;;;20.90;;
62030;SDS011;62035;52.094;5.112;2023-02-15T03:12:00;41.78;;;21.00;;
62030;SDS011;62035;52.094;5.112;2023-02-15T03:14:29;43.13;;;20.85;;
62030;SDS011;62035;52.094;5.112;2023-02-15T03:16:57;41.00;;;20.25;;
62030;SDS011;62035;52.094;5.112;2023-02-15T03:19:28;40.78;;;21.50;;
62030;SDS011;62035;52.094;5.112;2023-02-15T03:22:03;41.50;;;21.10;;
62030;SDS011;62035;52.094;5.112;2023-02-15T03:24:36;40.55;;;21.05;;
62030;SDS011;62035;52.094;5.112;2023-02-15T03:27:16;43.10;;;23.33;;
62030;SDS011;62035;52.094;5.112;2023-02-15T03:29:50;45.25;;;21.33;;
62030;SDS011;62035;52.094;5.112;2023-02-15T03:32:24;41.63;;;20.38;;
62030;SDS011;62035;52.094;5.112;2023-02-15T03:34:57;42.63;;;22.10;;
62030;SDS011;62035;52.094;5.112;2023-02-15T03:37:26;44.42;;;20.95;;
62030;SDS011;62035;52.094;5.112;2023-02-15T03:40:03;44.00;;;21.02;;
62030;SDS011;62035;52.094;5.112;2023-02-15T03:42:59;40.08;;;20.38;;
62030;SDS011;62035;52.094;5.112;2023-02-15T03:45:37;47.90;;;20.58;;
62030;SDS011;62035;52.094;5.112;2023-02-15T03:48:20;40.78;;;21.48;;
62030;SDS011;62035;52.094;5.112;2023-02-15T03:50:56;40.95;;;18.95;;
62030;SDS011;62035;52.094;5.112;2023-02-15T03:53:48;41.22;;;19.58;;
62030;SDS011;62035;52.094;5.112;2023-02-15T03:56:19;37.75;;;19.13;;
62030;SDS011;62035;52.094;5.112;2023-02-15T03:58:47;45.63;;;21.02;;
62030;SDS011;62035;52.094;5.112;2023-02-15T04:01:33;37.97;;;18.05;;
62030;SDS011;62035;52.094;5.112;2023-02-15T04:04:25;45.70;;;20.48;;
62030;SDS011;62035;52.094;5.112;2023-02-15T04:07:00;44.25;;;20.60;;
62030;SDS011;62035;52.094;5.112;2023-02-15T04:09:29;36.92;;;19.52;;
62030;SDS011;62035;52.094;5.112;2023-02-15T04:12:14;43.13;;;20.33;;
62030;SDS011;62035;52.094;5.112;2023-02-15T04:14:42;43.72;;;20.08;;
62030;SDS011;62035;52.094;5.112;2023-02-15T04:17:27;41.85;;;19.10;;
62030;SDS011;62035;52.094;5.112;2023-02-15T04:19:55;43.05;;;19.17;;
62030;SDS011;62035;52.094;5.112;2023-02-15T04:22:41;39.38;;;19.88;;
62030;SDS011;62035;52.094;5.112;2023-02-15T04:25:27;44.67;;;19.85;;
62030;SDS011;62035;52.094;5.112;2023-02-15T04:27:55;48.47;;;19.50;;
62030;SDS011;62035;52.094;5.112;2023-02-15T04:30:23;42.30;;;20.25;;
62030;SDS011;62035;52.094;5.112;2023-02-15T04:32:53;33.97;;;17.65;;
62030;SDS011;62035;52.094;5.112;2023-02-15T04:35:21;42.85;;;19.15;;
62030;SDS011;62035;52.094;5.112;2023-02-15T04:37:50;39.83;;;19.13;;
62030;SDS011;62035;52.094;5.112;2023-02-15T04:40:18;37.40;;;19.42;;
62030;SDS011;62035;52.094;5.112;2023-02-15T04:42:46;45.83;;;20.25;;
62030;SDS011;62035;52.094;5.112;2023-02-15T04:45:15;36.63;;;18.52;;
62030;SDS011;62035;52.094;5.112;2023-02-15T04:47:43;41.17;;;20.73;;
62030;SDS011;62035;52.094;5.112;2023-02-15T04:50:11;34.97;;;19.08;;
62030;SDS011;62035;52.094;5.112;2023-02-15T04:52:39;40.95;;;19.08;;
62030;SDS011;62035;52.094;5.112;2023-02-15T04:55:08;38.92;;;18.48;;
62030;SDS011;62035;52.094;5.112;2023-02-15T04:57:35;34.38;;;17.80;;
62030;SDS011;62035;52.094;5.112;2023-02-15T05:00:03;41.17;;;19.17;;
62030;SDS011;62035;52.094;5.112;2023-02-15T05:02:34;36.08;;;19.05;;
62030;SDS011;62035;52.094;5.112;2023-02-15T05:05:01;41.17;;;18.20;;
62030;SDS011;62035;52.094;5.112;2023-02-15T05:07:29;37.60;;;18.10;;
62030;SDS011;62035;52.094;5.112;2023-02-15T05:09:57;40.15;;;18.52;;
62030;SDS011;62035;52.094;5.112;2023-02-15T05:12:26;37.97;;;19.13;;
62030;SDS011;62035;52.094;5.112;2023-02-15T05:14:53;36.78;;;18.45;;
62030;SDS011;62035;52.094;5.112;2023-02-15T05:17:21;43.22;;;18.38;;
62030;SDS011;62035;52.094;5.112;2023-02-15T05:19:48;39.47;;;17.60;;
62030;SDS011;62035;52.094;5.112;2023-02-15T05:22:16;42.63;;;18.17;;
62030;SDS011;62035;52.094;5.112;2023-02-15T05:24:43;37.90;;;18.10;;
62030;SDS011;62035;52.094;5.112;2023-02-15T05:27:30;36.38;;;18.17;;
62030;SDS011;62035;52.094;5.112;2023-02-15T05:30:15;40.63;;;19.08;;
62030;SDS011;62035;52.094;5.112;2023-02-15T05:32:43;38.50;;;19.33;;
62030;SDS011;62035;52.094;5.112;2023-02-15T05:35:11;36.55;;;17.80;;
62030;SDS011;62035;52.094;5.112;2023-02-15T05:37:41;39.20;;;18.40;;
62030;SDS011;62035;52.094;5.112;2023-02-15T05:40:09;37.80;;;17.48;;
62030;SDS011;62035;52.094;5.112;2023-02-15T05:42:39;38.20;;;17.75;;
62030;SDS011;62035;52.094;5.112;2023-02-15T05:45:07;36.22;;;18.35;;
62030;SDS011;62035;52.094;5.112;2023-02-15T05:47:35;36.75;;;17.50;;
62030;SDS011;62035;52.094;5.112;2023-02-15T05:50:02;38.15;;;18.38;;
62030;SDS011;62035;52.094;5.112;2023-02-15T05:52:32;34.90;;;18.55;;
62030;SDS011;62035;52.094;5.112;2023-02-15T05:54:59;36.85;;;17.60;;
62030;SDS011;62035;52.094;5.112;2023-02-15T05:57:28;42.85;;;18.63;;
62030;SDS011;62035;52.094;5.112;2023-02-15T05:59:57;40.42;;;17.23;;
62030;SDS011;62035;52.094;5.112;2023-02-15T06:02:24;42.85;;;18.92;;
62030;SDS011;62035;52.094;5.112;2023-02-15T06:04:52;33.50;;;16.90;;
62030;SDS011;62035;52.094;5.112;2023-02-15T06:07:20;39.90;;;17.95;;
62030;SDS011;62035;52.094;5.112;2023-02-15T06:09:47;38.47;;;18.02;;
62030;SDS011;62035;52.094;5.112;2023-02-15T06:12:15;44.17;;;18.23;;
62030;SDS011;62035;52.094;5.112;2023-02-15T06:14:42;37.88;;;17.85;;
62030;SDS011;62035;52.094;5.112;2023-02-15T06:17:11;34.72;;;16.83;;
62030;SDS011;62035;52.094;5.112;2023-02-15T06:19:39;37.55;;;17.27;;
62030;SDS011;62035;52.094;5.112;2023-02-15T06:22:06;37.40;;;17.45;;
62030;SDS011;62035;52.094;5.112;2023-02-15T06:24:34;40.35;;;18.67;;
62030;SDS011;62035;52.094;5.112;2023-02-15T06:27:01;37.65;;;17.60;;
62030;SDS011;62035;52.094;5.112;2023-02-15T06:29:29;40.15;;;17.75;;
62030;SDS011;62035;52.094;5.112;2023-02-15T06:31:57;36.40;;;17.75;;
62030;SDS011;62035;52.094;5.112;2023-02-15T06:34:26;38.55;;;17.55;;
62030;SDS011;62035;52.094;5.112;2023-02-15T06:36:53;38.90;;;17.55;;
62030;SDS011;62035;52.094;5.112;2023-02-15T06:39:21;36.20;;;17.52;;
62030;SDS011;62035;52.094;5.112;2023-02-15T06:41:49;37.35;;;17.45;;
62030;SDS011;62035;52.094;5.112;2023-02-15T06:44:16;37.75;;;16.77;;
62030;SDS011;62035;52.094;5.112;2023-02-15T06:46:44;34.47;;;16.45;;
62030;SDS011;62035;52.094;5.112;2023-02-15T06:49:11;40.72;;;18.08;;
62030;SDS011;62035;52.094;5.112;2023-02-15T06:51:40;34.90;;;18.27;;
62030;SDS011;62035;52.094;5.112;2023-02-15T06:54:08;37.63;;;18.50;;
62030;SDS011;62035;52.094;5.112;2023-02-15T06:56:35;38.05;;;17.85;;
62030;SDS011;62035;52.094;5.112;2023-02-15T06:59:04;35.00;;;16.88;;
62030;SDS011;62035;52.094;5.112;2023-02-15T07:01:32;33.53;;;17.70;;
62030;SDS011;62035;52.094;5.112;2023-02-15T07:03:59;38.28;;;17.75;;
62030;SDS011;62035;52.094;5.112;2023-02-15T07:06:30;37.28;;;17.13;;
62030;SDS011;62035;52.094;5.112;2023-02-15T07:08:59;35.80;;;17.73;;
62030;SDS011;62035;52.094;5.112;2023-02-15T07:11:27;36.42;;;16.67;;
62030;SDS011;62035;52.094;5.112;2023-02-15T07:14:13;38.50;;;16.90;;
62030;SDS011;62035;52.094;5.112;2023-02-15T07:16:40;34.88;;;16.65;;
62030;SDS011;62035;52.094;5.112;2023-02-15T07:19:08;33.55;;;16.77;;
62030;SDS011;62035;52.094;5.112;2023-02-15T07:21:36;36.60;;;18.55;;
62030;SDS011;62035;52.094;5.112;2023-02-15T07:24:05;34.30;;;16.85;;
62030;SDS011;62035;52.094;5.112;2023-02-15T07:26:33;37.25;;;17.35;;
62030;SDS011;62035;52.094;5.112;2023-02-15T07:29:01;40.25;;;18.98;;
62030;SDS011;62035;52.094;5.112;2023-02-15T07:31:29;35.38;;;17.48;;
62030;SDS011;62035;52.094;5.112;2023-02-15T07:33:56;43.88;;;18.23;;
62030;SDS011;62035;52.094;5.112;2023-02-15T07:36:24;39.70;;;16.58;;
62030;SDS011;62035;52.094;5.112;2023-02-15T07:38:51;36.97;;;18.17;;
62030;SDS011;62035;52.094;5.112;2023-02-15T07:41:20;36.63;;;17.90;;
62030;SDS011;62035;52.094;5.112;2023-02-15T07:43:49;39.47;;;17.35;;
62030;SDS011;62035;52.094;5.112;2023-02-15T07:46:17;39.47;;;19.20;;
62030;SDS011;62035;52.094;5.112;2023-02-15T07:48:46;37.75;;;18.00;;
62030;SDS011;62035;52.094;5.112;2023-02-15T07:51:14;37.95;;;18.23;;
62030;SDS011;62035;52.094;5.112;2023-02-15T07:53:42;33.22;;;17.50;;
62030;SDS011;62035;52.094;5.112;2023-02-15T07:56:10;42.13;;;19.77;;
62030;SDS011;62035;52.094;5.112;2023-02-15T07:58:41;44.17;;;18.38;;
62030;SDS011;62035;52.094;5.112;2023-02-15T08:01:18;40.10;;;18.70;;
62030;SDS011;62035;52.094;5.112;2023-02-15T08:03:47;41.55;;;18.00;;
62030;SDS011;62035;52.094;5.112;2023-02-15T08:06:15;38.63;;;18.02;;
62030;SDS011;62035;52.094;5.112;2023-02-15T08:08:43;40.28;;;19.35;;
62030;SDS011;62035;52.094;5.112;2023-02-15T08:11:14;36.92;;;17.90;;
62030;SDS011;62035;52.094;5.112;2023-02-15T08:13:53;37.30;;;18.05;;
62030;SDS011;62035;52.094;5.112;2023-02-15T08:16:25;35.78;;;17.52;;
62030;SDS011;62035;52.094;5.112;2023-02-15T08:18:57;42.40;;;19.70;;
62030;SDS011;62035;52.094;5.112;2023-02-15T08:21:26;41.53;;;18.98;;
62030;SDS011;62035;52.094;5.112;2023-02-15T08:23:56;40.70;;;18.85;;
62030;SDS011;62035;52.094;5.112;2023-02-15T08:26:25;41.25;;;19.00;;
62030;SDS011;62035;52.094;5.112;2023-02-15T08:28:56;38.25;;;18.20;;
62030;SDS011;62035;52.094;5.112;2023-02-15T08:31:26;41.85;;;18.88;;
62030;SDS011;62035;52.094;5.112;2023-02-15T08:33:55;47.83;;;19.35;;
62030;SDS011;62035;52.094;5.112;2023-02-15T08:36:25;40.42;;;18.85;;
62030;SDS011;62035;52.094;5.112;2023-02-15T08:38:57;40.78;;;19.90;;
62030;SDS011;62035;52.094;5.112;2023-02-15T08:41:27;35.95;;;17.80;;
62030;SDS011;62035;52.094;5.112;2023-02-15T08:43:58;43.08;;;18.50;;
62030;SDS011;62035;52.094;5.112;2023-02-15T08:48:58;38.70;;;18.40;;
62030;SDS011;62035;52.094;5.112;2023-02-15T08:51:27;38.17;;;18.35;;
62030;SDS011;62035;52.094;5.112;2023-02-15T08:53:58;39.67;;;18.70;;
62030;SDS011;62035;52.094;5.112;2023-02-15T08:56:29;42.60;;;19.57;;
62030;SDS011;62035;52.094;5.112;2023-02-15T08:59:01;39.30;;;20.13;;
62030;SDS011;62035;52.094;5.112;2023-02-15T09:01:29;34.80;;;17.38;;
62030;SDS011;62035;52.094;5.112;2023-02-15T09:04:00;43.60;;;19.38;;
62030;SDS011;62035;52.094;5.112;2023-02-15T09:06:31;39.35;;;19.52;;
62030;SDS011;62035;52.094;5.112;2023-02-15T09:08:59;36.20;;;18.17;;
62030;SDS011;62035;52.094;5.112;2023-02-15T09:11:30;41.45;;;18.92;;
62030;SDS011;62035;52.094;5.112;2023-02-15T09:14:03;37.90;;;20.83;;
62030;SDS011;62035;52.094;5.112;2023-02-15T09:16:34;41.17;;;19.08;;
62030;SDS011;62035;52.094;5.112;2023-02-15T09:19:04;39.28;;;19.48;;
62030;SDS011;62035;52.094;5.112;2023-02-15T09:21:33;35.50;;;19.83;;
62030;SDS011;62035;52.094;5.112;2023-02-15T09:24:05;38.22;;;19.27;;
62030;SDS011;62035;52.094;5.112;2023-02-15T09:26:35;35.45;;;19.25;;
62030;SDS011;62035;52.094;5.112;2023-02-15T09:29:08;44.05;;;20.48;;
62030;SDS011;62035;52.094;5.112;2023-02-15T09:31:38;40.08;;;20.40;;
62030;SDS011;62035;52.094;5.112;2023-02-15T09:34:09;39.78;;;19.88;;
62030;SDS011;62035;52.094;5.112;2023-02-15T09:36:39;41.50;;;20.13;;
62030;SDS011;62035;52.094;5.112;2023-02-15T09:39:08;39.95;;;20.15;;
62030;SDS011;62035;52.094;5.112;2023-02-15T09:41:47;41.88;;;20.13;;
62030;SDS011;62035;52.094;5.112;2023-02-15T09:45:05;40.10;;;20.00;;
62030;SDS011;62035;52.094;5.112;2023-02-15T09:47:58;39.67;;;18.85;;
62030;SDS011;62035;52.094;5.112;2023-02-15T09:50:55;44.95;;;20.08;;
62030;SDS011;62035;52.094;5.112;2023-02-15T09:53:46;36.70;;;19.50;;
62030;SDS011;62035;52.094;5.112;2023-02-15T09:56:44;40.05;;;19.83;;
62030;SDS011;62035;52.094;5.112;2023-02-15T09:59:19;40.30;;;19.58;;
62030;SDS011;62035;52.094;5.112;2023-02-15T10:02:05;40.58;;;20.23;;
62030;SDS011;62035;52.094;5.112;2023-02-15T10:04:54;34.38;;;17.85;;
62030;SDS011;62035;52.094;5.112;2023-02-15T10:07:53;40.88;;;20.52;;
62030;SDS011;62035;52.094;5.112;2023-02-15T10:10:59;35.25;;;18.50;;
62030;SDS011;62035;52.094;5.112;2023-02-15T10:14:00;39.20;;;19.08;;
62030;SDS011;62035;52.094;5.112;2023-02-15T10:16:56;44.08;;;21.02;;
62030;SDS011;62035;52.094;5.112;2023-02-15T10:19:43;42.47;;;20.52;;
62030;SDS011;62035;52.094;5.112;2023-02-15T10:22:34;38.83;;;19.73;;
62030;SDS011;62035;52.094;5.112;2023-02-15T10:25:21;39.53;;;19.83;;
62030;SDS011;62035;52.094;5.112;2023-02-15T10:28:01;34.35;;;19.02;;
62030;SDS011;62035;52.094;5.112;2023-02-15T10:30:36;38.83;;;19.20;;
62030;SDS011;62035;52.094;5.112;2023-02-15T10:33:16;42.20;;;20.05;;
62030;SDS011;62035;52.094;5.112;2023-02-15T10:36:05;45.53;;;21.48;;
62030;SDS011;62035;52.094;5.112;2023-02-15T10:38:58;35.85;;;20.27;;
62030;SDS011;62035;52.094;5.112;2023-02-15T10:41:41;41.90;;;21.70;;
62030;SDS011;62035;52.094;5.112;2023-02-15T10:44:28;46.25;;;20.80;;
62030;SDS011;62035;52.094;5.112;2023-02-15T10:50:26;38.95;;;19.88;;
62030;SDS011;62035;52.094;5.112;2023-02-15T10:53:13;44.20;;;20.58;;
62030;SDS011;62035;52.094;5.112;2023-02-15T10:56:01;38.28;;;19.33;;
62030;SDS011;62035;52.094;5.112;2023-02-15T10:58:45;39.88;;;20.33;;
62030;SDS011;62035;52.094;5.112;2023-02-15T11:01:34;42.10;;;20.73;;
62030;SDS011;62035;52.094;5.112;2023-02-15T11:07:25;39.03;;;20.33;;
62030;SDS011;62035;52.094;5.112;2023-02-15T11:10:01;40.63;;;20.85;;
62030;SDS011;62035;52.094;5.112;2023-02-15T11:12:49;39.45;;;20.27;;
62030;SDS011;62035;52.094;5.112;2023-02-15T11:15:18;38.40;;;20.95;;
62030;SDS011;62035;52.094;5.112;2023-02-15T11:17:56;47.22;;;21.67;;
62030;SDS011;62035;52.094;5.112;2023-02-15T11:20:31;45.50;;;22.02;;
62030;SDS011;62035;52.094;5.112;2023-02-15T11:23:10;42.80;;;22.30;;
62030;SDS011;62035;52.094;5.112;2023-02-15T11:25:44;45.83;;;22.35;;
62030;SDS011;62035;52.094;5.112;2023-02-15T11:28:22;50.38;;;22.60;;
62030;SDS011;62035;52.094;5.112;2023-02-15T11:30:57;42.85;;;21.88;;
62030;SDS011;62035;52.094;5.112;2023-02-15T11:33:41;41.83;;;21.60;;
62030;SDS011;62035;52.094;5.112;2023-02-15T11:36:15;44.00;;;21.27;;
62030;SDS011;62035;52.094;5.112;2023-02-15T11:38:50;41.80;;;21.77;;
62030;SDS011;62035;52.094;5.112;2023-02-15T11:41:27;41.90;;;21.63;;
62030;SDS011;62035;52.094;5.112;2023-02-15T11:44:04;43.63;;;23.20;;
62030;SDS011;62035;52.094;5.112;2023-02-15T11:46:41;43.38;;;21.92;;
62030;SDS011;62035;52.094;5.112;2023-02-15T11:49:10;40.47;;;21.55;;
62030;SDS011;62035;52.094;5.112;2023-02-15T11:51:52;45.28;;;23.88;;
62030;SDS011;62035;52.094;5.112;2023-02-15T11:54:26;43.42;;;23.15;;
62030;SDS011;62035;52.094;5.112;2023-02-15T11:56:59;41.53;;;22.38;;
62030;SDS011;62035;52.094;5.112;2023-02-15T11:59:40;45.10;;;22.45;;
62030;SDS011;62035;52.094;5.112;2023-02-15T12:02:15;42.13;;;21.75;;
62030;SDS011;62035;52.094;5.112;2023-02-15T12:04:47;44.63;;;21.67;;
62030;SDS011;62035;52.094;5.112;2023-02-15T12:07:22;46.35;;;22.85;;
62030;SDS011;62035;52.094;5.112;2023-02-15T12:09:59;43.28;;;21.77;;
62030;SDS011;62035;52.094;5.112;2023-02-15T12:12:33;44.25;;;22.48;;
62030;SDS011;62035;52.094;5.112;2023-02-15T12:15:02;43.92;;;22.60;;
62030;SDS011;62035;52.094;5.112;2023-02-15T12:17:34;49.63;;;23.45;;
62030;SDS011;62035;52.094;5.112;2023-02-15T12:20:20;41.50;;;22.83;;
62030;SDS011;62035;52.094;5.112;2023-02-15T12:22:53;50.40;;;23.85;;
62030;SDS011;62035;52.094;5.112;2023-02-15T12:25:33;43.58;;;23.10;;
62030;SDS011;62035;52.094;5.112;2023-02-15T12:28:15;42.50;;;22.90;;
62030;SDS011;62035;52.094;5.112;2023-02-15T12:30:54;48.40;;;23.83;;
62030;SDS011;62035;52.094;5.112;2023-02-15T12:33:26;48.10;;;24.80;;
62030;SDS011;62035;52.094;5.112;2023-02-15T12:35:59;45.65;;;24.60;;
62030;SDS011;62035;52.094;5.112;2023-02-15T12:38:31;44.40;;;24.05;;
62030;SDS011;62035;52.094;5.112;2023-02-15T12:41:02;50.08;;;24.90;;
62030;SDS011;62035;52.094;5.112;2023-02-15T12:43:32;48.63;;;24.77;;
62030;SDS011;62035;52.094;5.112;2023-02-15T12:46:20;46.75;;;23.75;;
62030;SDS011;62035;52.094;5.112;2023-02-15T12:49:16;46.17;;;24.45;;
62030;SDS011;62035;52.094;5.112;2023-02-15T12:51:46;43.42;;;23.50;;
62030;SDS011;62035;52.094;5.112;2023-02-15T12:54:21;47.05;;;24.27;;
62030;SDS011;62035;52.094;5.112;2023-02-15T12:56:59;47.25;;;24.08;;
62030;SDS011;62035;52.094;5.112;2023-02-15T12:59:48;42.83;;;24.13;;
62030;SDS011;62035;52.094;5.112;2023-02-15T13:02:19;43.90;;;23.92;;
62030;SDS011;62035;52.094;5.112;2023-02-15T13:04:52;44.80;;;22.92;;
62030;SDS011;62035;52.094;5.112;2023-02-15T13:07:23;43.95;;;22.73;;
62030;SDS011;62035;52.094;5.112;2023-02-15T13:09:57;45.33;;;22.40;;
62030;SDS011;62035;52.094;5.112;2023-02-15T13:12:27;38.28;;;22.95;;
62030;SDS011;62035;52.094;5.112;2023-02-15T13:14:59;44.17;;;23.98;;
62030;SDS011;62035;52.094;5.112;2023-02-15T13:17:28;40.33;;;21.85;;
62030;SDS011;62035;52.094;5.112;2023-02-15T13:20:02;45.88;;;23.60;;
62030;SDS011;62035;52.094;5.112;2023-02-15T13:22:41;49.38;;;23.40;;
62030;SDS011;62035;52.094;5.112;2023-02-15T13:25:14;47.08;;;22.60;;
62030;SDS011;62035;52.094;5.112;2023-02-15T13:27:50;46.08;;;24.02;;
62030;SDS011;62035;52.094;5.112;2023-02-15T13:30:23;41.78;;;22.42;;
62030;SDS011;62035;52.094;5.112;2023-02-15T13:32:55;42.63;;;23.00;;
62030;SDS011;62035;52.094;5.112;2023-02-15T13:35:29;44.63;;;24.05;;
62030;SDS011;62035;52.094;5.112;2023-02-15T13:38:16;41.97;;;23.15;;
62030;SDS011;62035;52.094;5.112;2023-02-15T13:41:19;50.28;;;23.92;;
62030;SDS011;62035;52.094;5.112;2023-02-15T13:43:56;47.33;;;23.92;;
62030;SDS011;62035;52.094;5.112;2023-02-15T13:46:41;48.20;;;25.23;;
62030;SDS011;62035;52.094;5.112;2023-02-15T13:49:36;49.78;;;24.90;;
62030;SDS011;62035;52.094;5.112;2023-02-15T13:52:23;42.55;;;23.80;;
62030;SDS011;62035;52.094;5.112;2023-02-15T13:54:57;46.35;;;23.70;;
62030;SDS011;62035;52.094;5.112;2023-02-15T13:58:06;46.13;;;23.70;;
62030;SDS011;62035;52.094;5.112;2023-02-15T14:01:12;39.00;;;20.85;;
62030;SDS011;62035;52.094;5.112;2023-02-15T14:03:57;41.92;;;22.13;;
62030;SDS011;62035;52.094;5.112;2023-02-15T14:07:01;47.72;;;22.17;;
62030;SDS011;62035;52.094;5.112;2023-02-15T14:09:47;39.88;;;21.73;;
62030;SDS011;62035;52.094;5.112;2023-02-15T14:12:33;46.20;;;22.25;;
62030;SDS011;62035;52.094;5.112;2023-02-15T14:15:23;41.58;;;22.23;;
62030;SDS011;62035;52.094;5.112;2023-02-15T14:18:11;47.95;;;22.33;;
62030;SDS011;62035;52.094;5.112;2023-02-15T14:20:54;41.28;;;21.88;;
62030;SDS011;62035;52.094;5.112;2023-02-15T14:23:37;46.65;;;22.52;;
62030;SDS011;62035;52.094;5.112;2023-02-15T14:26:21;42.20;;;21.75;;
62030;SDS011;62035;52.094;5.112;2023-02-15T14:29:10;41.63;;;22.08;;
62030;SDS011;62035;52.094;5.112;2023-02-15T14:31:54;41.33;;;22.30;;
62030;SDS011;62035;52.094;5.112;2023-02-15T14:34:34;41.90;;;23.17;;
62030;SDS011;62035;52.094;5.112;2023-02-15T14:37:11;43.58;;;22.35;;
62030;SDS011;62035;52.094;5.112;2023-02-15T14:39:44;49.25;;;23.27;;
62030;SDS011;62035;52.094;5.112;2023-02-15T14:42:42;46.28;;;23.85;;
62030;SDS011;62035;52.094;5.112;2023-02-15T14:45:39;37.95;;;21.77;;
62030;SDS011;62035;52.094;5.112;2023-02-15T14:48:16;47.42;;;23.00;;
62030;SDS011;62035;52.094;5.112;2023-02-15T14:50:53;45.65;;;22.05;;
62030;SDS011;62035;52.094;5.112;2023-02-15T14:53:34;43.72;;;22.58;;
62030;SDS011;62035;52.094;5.112;2023-02-15T14:56:14;47.95;;;24.15;;
62030;SDS011;62035;52.094;5.112;2023-02-15T14:58:54;43.03;;;23.77;;
62030;SDS011;62035;52.094;5.112;2023-02-15T15:01:25;44.67;;;23.75;;
62030;SDS011;62035;52.094;5.112;2023-02-15T15:03:57;46.03;;;22.73;;
62030;SDS011;62035;52.094;5.112;2023-02-15T15:06:30;46.97;;;23.23;;
62030;SDS011;62035;52.094;5.112;2023-02-15T15:09:10;45.95;;;24.10;;
62030;SDS011;62035;52.094;5.112;2023-02-15T15:11:46;43.97;;;24.15;;
62030;SDS011;62035;52.094;5.112;2023-02-15T15:22:40;47.75;;;24.33;;
62030;SDS011;62035;52.094;5.112;2023-02-15T15:25:10;45.65;;;24.27;;
62030;SDS011;62035;52.094;5.112;2023-02-15T15:27:54;43.65;;;23.98;;